createdAt,value
2019-06-18T00:00:33.248Z,40.40
2019-06-18T00:03:01.120Z,40.30
2019-06-18T00:05:31.236Z,41.70
2019-06-18T00:08:00.775Z,41.10
2019-06-18T00:10:27.138Z,40.30
2019-06-18T00:12:54.373Z,38.70
2019-06-18T00:15:21.607Z,39.83
2019-06-18T00:17:50.721Z,43.00
2019-06-18T00:20:20.445Z,41.70
2019-06-18T00:22:46.857Z,40.20
2019-06-18T00:25:14.089Z,39.93
2019-06-18T00:27:41.434Z,38.87
2019-06-18T00:30:11.146Z,39.13
2019-06-18T00:32:37.989Z,38.93
2019-06-18T00:35:06.316Z,40.30
2019-06-18T00:37:33.838Z,39.27
2019-06-18T00:40:01.204Z,39.07
2019-06-18T00:42:28.426Z,39.23
2019-06-18T00:44:56.668Z,40.03
2019-06-18T00:47:24.101Z,41.70
2019-06-18T00:49:51.617Z,39.57
2019-06-18T00:52:19.075Z,39.73
2019-06-18T00:54:48.213Z,40.00
2019-06-18T00:57:17.664Z,39.20
2019-06-18T00:59:47.013Z,41.20
2019-06-18T01:02:13.706Z,40.33
2019-06-18T01:04:40.949Z,43.33
2019-06-18T01:07:08.457Z,41.57
2019-06-18T01:09:37.242Z,40.20
2019-06-18T01:12:06.862Z,39.73
2019-06-18T01:14:36.455Z,41.53
2019-06-18T01:17:03.116Z,41.23
2019-06-18T01:19:30.406Z,40.43
2019-06-18T01:21:57.604Z,48.43
2019-06-18T01:24:24.642Z,40.50
2019-06-18T01:26:52.195Z,43.20
2019-06-18T01:29:19.513Z,40.00
2019-06-18T01:31:47.095Z,40.67
2019-06-18T01:34:14.402Z,41.00
2019-06-18T01:36:43.228Z,43.47
2019-06-18T01:39:13.154Z,52.07
2019-06-18T01:41:40.021Z,44.53
2019-06-18T01:44:07.259Z,40.40
2019-06-18T01:46:38.473Z,40.47
2019-06-18T01:49:03.849Z,42.73
2019-06-18T01:51:33.361Z,42.97
2019-06-18T01:54:02.575Z,39.50
2019-06-18T01:56:29.598Z,40.37
2019-06-18T01:58:57.045Z,41.70
2019-06-18T02:01:24.277Z,45.90
2019-06-18T02:03:52.944Z,43.13
2019-06-18T02:06:20.297Z,44.83
2019-06-18T02:08:47.550Z,49.80
2019-06-18T02:11:14.766Z,42.10
2019-06-18T02:13:42.569Z,41.00
2019-06-18T02:16:12.968Z,45.23
2019-06-18T02:18:39.197Z,45.53
2019-06-18T02:21:06.426Z,44.60
2019-06-18T02:23:33.544Z,44.63
2019-06-18T02:26:02.534Z,46.43
2019-06-18T02:28:33.072Z,43.57
2019-06-18T02:30:59.403Z,43.83
2019-06-18T02:33:26.810Z,43.13
2019-06-18T02:35:54.043Z,45.57
2019-06-18T02:38:23.452Z,43.73
2019-06-18T02:40:52.800Z,44.30
2019-06-18T02:43:22.164Z,44.60
2019-06-18T02:45:49.442Z,49.60
2019-06-18T02:48:16.818Z,45.13
2019-06-18T02:50:44.015Z,46.07
2019-06-18T02:53:13.098Z,46.20
2019-06-18T02:55:40.552Z,46.00
2019-06-18T02:58:07.797Z,42.90
2019-06-18T03:00:46.493Z,44.90
2019-06-18T03:03:13.789Z,44.27
2019-06-18T03:05:42.668Z,45.73
2019-06-18T03:08:12.447Z,47.40
2019-06-18T03:10:39.193Z,43.53
2019-06-18T03:13:06.418Z,44.37
2019-06-18T03:15:33.720Z,42.87
2019-06-18T03:18:02.444Z,43.33
2019-06-18T03:20:30.045Z,47.53
2019-06-18T03:22:57.433Z,44.03
2019-06-18T03:25:24.669Z,48.20
2019-06-18T03:27:52.847Z,43.00
2019-06-18T03:30:23.879Z,44.47
2019-06-18T03:32:49.742Z,43.03
2019-06-18T03:35:18.890Z,45.83
2019-06-18T03:37:46.149Z,44.03
2019-06-18T03:40:13.253Z,45.27
2019-06-18T03:42:42.542Z,43.60
2019-06-18T03:45:09.591Z,43.30
2019-06-18T03:47:45.934Z,49.10
2019-06-18T03:50:05.972Z,49.43
2019-06-18T03:52:33.307Z,45.37
2019-06-18T03:55:03.626Z,47.17
2019-06-18T03:57:29.793Z,46.23
2019-06-18T03:59:57.059Z,43.90
2019-06-18T04:02:24.602Z,45.97
2019-06-18T04:04:52.969Z,43.60
2019-06-18T04:07:22.449Z,45.63
2019-06-18T04:09:49.871Z,46.53
2019-06-18T04:12:17.009Z,46.60
2019-06-18T04:14:44.061Z,45.43
2019-06-18T04:17:12.759Z,51.90
2019-06-18T04:19:43.284Z,46.23
2019-06-18T04:22:09.581Z,49.17
2019-06-18T04:24:36.943Z,44.47
2019-06-18T04:27:04.179Z,44.13
2019-06-18T04:29:33.509Z,44.77
2019-06-18T04:32:02.697Z,53.77
2019-06-18T04:34:32.480Z,49.20
2019-06-18T04:36:59.236Z,45.77
2019-06-18T04:39:26.359Z,44.90
2019-06-18T04:41:53.618Z,48.33
2019-06-18T04:44:22.694Z,48.17
2019-06-18T04:46:49.961Z,48.80
2019-06-18T04:49:17.238Z,50.57
2019-06-18T04:51:44.341Z,52.03
2019-06-18T04:54:13.609Z,52.93
2019-06-18T04:56:43.187Z,47.07
2019-06-18T04:59:12.954Z,49.33
2019-06-18T05:01:39.092Z,53.20
2019-06-18T05:04:06.317Z,56.33
2019-06-18T05:06:33.388Z,54.07
2019-06-18T05:09:02.986Z,44.77
2019-06-18T05:11:29.762Z,51.77
2019-06-18T05:13:57.205Z,54.13
2019-06-18T05:16:24.245Z,68.60
2019-06-18T05:18:53.287Z,76.13
2019-06-18T05:21:22.298Z,69.40
2019-06-18T05:23:49.718Z,88.03
2019-06-18T05:26:16.752Z,112.20
2019-06-18T05:28:44.010Z,212.50
2019-06-18T05:31:13.606Z,175.63
2019-06-18T05:33:42.510Z,154.90
2019-06-18T05:36:09.558Z,156.60
2019-06-18T05:38:36.798Z,228.23
2019-06-18T05:41:04.072Z,316.37
2019-06-18T05:43:32.829Z,318.27
2019-06-18T05:46:00.165Z,328.00
2019-06-18T05:48:27.366Z,337.57
2019-06-18T05:50:54.889Z,396.13
2019-06-18T05:53:22.492Z,417.90
2019-06-18T05:55:52.417Z,397.00
2019-06-18T05:58:19.206Z,393.50
2019-06-18T06:00:46.555Z,373.53
2019-06-18T06:03:14.058Z,391.00
2019-06-18T06:05:42.170Z,355.37
2019-06-18T06:08:10.042Z,351.30
2019-06-18T06:10:37.211Z,347.23
2019-06-18T06:13:04.449Z,348.07
2019-06-18T06:15:32.914Z,372.40
2019-06-18T06:18:02.534Z,319.47
2019-06-18T06:20:29.400Z,271.63
2019-06-18T06:22:56.612Z,212.73
2019-06-18T06:25:24.575Z,244.13
2019-06-18T06:27:52.819Z,339.90
2019-06-18T06:30:22.884Z,221.40
2019-06-18T06:32:49.758Z,173.73
2019-06-18T06:35:16.894Z,114.37
2019-06-18T06:37:44.104Z,109.50
2019-06-18T06:40:13.066Z,90.40
2019-06-18T06:42:42.635Z,89.50
2019-06-18T06:45:09.570Z,104.23
2019-06-18T06:47:37.069Z,90.93
2019-06-18T06:50:05.945Z,65.53
2019-06-18T06:52:33.345Z,94.33
2019-06-18T06:55:03.220Z,46.67
2019-06-18T06:57:32.637Z,44.30
2019-06-18T06:59:59.131Z,45.13
2019-06-18T07:02:26.433Z,43.17
2019-06-18T07:04:53.569Z,52.13
2019-06-18T07:07:20.665Z,45.37
2019-06-18T07:09:48.024Z,49.83
2019-06-18T07:12:15.274Z,52.23
2019-06-18T07:14:42.997Z,44.90
2019-06-18T07:17:12.555Z,42.50
2019-06-18T07:19:52.425Z,43.97
2019-06-18T07:22:09.152Z,41.20
2019-06-18T07:24:36.466Z,44.37
2019-06-18T07:27:03.713Z,41.87
2019-06-18T07:29:32.382Z,50.10
2019-06-18T07:32:02.399Z,45.43
2019-06-18T07:34:29.241Z,41.10
2019-06-18T07:36:56.568Z,43.73
2019-06-18T07:39:23.801Z,47.57
2019-06-18T07:41:53.338Z,53.53
2019-06-18T07:44:20.020Z,107.43
2019-06-18T07:46:47.139Z,50.83
2019-06-18T07:49:14.710Z,70.47
2019-06-18T07:51:42.489Z,58.97
2019-06-18T07:54:12.356Z,50.83
2019-06-18T07:56:39.073Z,82.77
2019-06-18T07:59:06.311Z,58.97
2019-06-18T08:01:33.883Z,59.23
2019-06-18T08:04:03.181Z,48.50
2019-06-18T08:06:32.872Z,47.10
2019-06-18T08:08:59.532Z,45.40
2019-06-18T08:11:26.729Z,46.00
2019-06-18T08:13:54.277Z,41.80
2019-06-18T08:16:23.310Z,51.13
2019-06-18T08:18:52.876Z,50.90
2019-06-18T08:21:19.940Z,50.40
2019-06-18T08:23:47.228Z,56.63
2019-06-18T08:26:14.461Z,49.03
2019-06-18T08:28:43.395Z,46.10
2019-06-18T08:31:13.054Z,49.77
2019-06-18T08:33:42.460Z,52.07
2019-06-18T08:36:09.591Z,50.23
2019-06-18T08:38:38.554Z,43.57
2019-06-18T08:41:05.812Z,51.30
2019-06-18T08:43:33.294Z,47.50
2019-06-18T08:46:02.739Z,45.73
2019-06-18T08:48:29.865Z,49.53
2019-06-18T08:50:57.810Z,59.97
2019-06-18T08:53:25.189Z,70.67
2019-06-18T08:55:52.790Z,45.07
2019-06-18T08:58:22.579Z,48.90
2019-06-18T09:00:49.257Z,68.97
2019-06-18T09:03:25.531Z,69.77
2019-06-18T09:05:46.101Z,86.20
2019-06-18T09:08:13.626Z,91.83
2019-06-18T09:10:42.423Z,48.37
2019-06-18T09:13:09.858Z,100.60
2019-06-18T09:15:37.051Z,71.07
2019-06-18T09:18:04.268Z,82.17
2019-06-18T09:20:33.814Z,87.23
2019-06-18T09:23:03.178Z,95.53
2019-06-18T09:25:30.033Z,54.30
2019-06-18T09:27:57.279Z,54.00
2019-06-18T09:30:28.119Z,61.77
2019-06-18T09:32:55.758Z,81.97
2019-06-18T09:35:23.080Z,119.23
2019-06-18T09:37:50.289Z,115.10
2019-06-18T09:40:17.467Z,90.33
2019-06-18T09:42:44.665Z,66.40
2019-06-18T09:45:13.603Z,53.73
2019-06-18T09:47:42.461Z,42.97
2019-06-18T09:50:12.830Z,45.23
2019-06-18T09:52:39.693Z,47.93
2019-06-18T09:55:06.983Z,41.10
2019-06-18T09:57:34.217Z,44.00
2019-06-18T10:00:02.989Z,51.90
2019-06-18T10:02:32.628Z,49.13
2019-06-18T10:04:59.698Z,49.67
2019-06-18T10:07:26.949Z,55.90
2019-06-18T10:09:54.282Z,50.67
2019-06-18T10:12:22.885Z,61.53
2019-06-18T10:14:50.259Z,65.57
2019-06-18T10:17:17.454Z,49.57
2019-06-18T10:19:44.686Z,61.07
2019-06-18T10:22:14.048Z,52.00
2019-06-18T10:24:42.309Z,49.53
2019-06-18T10:27:09.749Z,48.63
2019-06-18T10:29:57.795Z,57.97
2019-06-18T10:32:06.061Z,51.47
2019-06-18T10:34:33.330Z,45.57
2019-06-18T10:37:00.621Z,43.57
2019-06-18T10:39:27.828Z,49.53
2019-06-18T10:41:55.074Z,41.10
2019-06-18T10:44:23.133Z,44.27
2019-06-18T10:46:52.683Z,48.37
2019-06-18T10:49:19.429Z,40.40
2019-06-18T10:51:56.494Z,54.43
2019-06-18T10:54:16.054Z,43.90
2019-06-18T10:56:43.359Z,60.23
2019-06-18T10:59:10.485Z,66.43
2019-06-18T11:01:37.817Z,51.93
2019-06-18T11:04:05.069Z,57.60
2019-06-18T11:06:33.018Z,83.80
2019-06-18T11:09:02.741Z,65.67
2019-06-18T11:11:29.683Z,66.40
2019-06-18T11:14:07.738Z,64.73
2019-06-18T11:16:26.144Z,63.63
2019-06-18T11:18:53.403Z,69.90
2019-06-18T11:21:22.734Z,58.23
2019-06-18T11:23:49.862Z,62.20
2019-06-18T11:26:17.060Z,55.90
2019-06-18T11:28:44.397Z,54.43
2019-06-18T11:31:13.922Z,50.73
2019-06-18T11:33:41.080Z,54.80
2019-06-18T11:36:08.211Z,65.30
2019-06-18T11:38:35.425Z,56.30
2019-06-18T11:41:02.993Z,53.83
2019-06-18T11:43:30.385Z,53.33
2019-06-18T11:45:57.743Z,59.53
2019-06-18T11:48:24.957Z,65.13
2019-06-18T11:50:52.777Z,57.17
2019-06-18T11:53:22.689Z,59.50
2019-06-18T11:55:49.580Z,55.17
2019-06-18T11:58:17.084Z,62.33
2019-06-18T12:00:44.299Z,69.33
2019-06-18T12:03:13.094Z,53.53
2019-06-18T12:05:42.921Z,53.40
2019-06-18T12:08:09.703Z,65.87
2019-06-18T12:10:36.905Z,50.47
2019-06-18T12:13:04.069Z,45.37
2019-06-18T12:15:33.894Z,43.00
2019-06-18T12:18:01.179Z,47.80
2019-06-18T12:20:28.498Z,48.70
2019-06-18T12:22:55.737Z,47.60
2019-06-18T12:25:23.001Z,43.57
2019-06-18T12:27:53.052Z,58.57
2019-06-18T12:30:22.451Z,54.83
2019-06-18T12:32:54.336Z,47.30
2019-06-18T12:35:17.713Z,71.40
2019-06-18T12:37:44.891Z,56.77
2019-06-18T12:40:13.410Z,71.43
2019-06-18T12:42:42.852Z,56.10
2019-06-18T12:45:12.714Z,69.87
2019-06-18T12:47:42.798Z,72.63
2019-06-18T12:50:09.569Z,65.03
2019-06-18T12:52:36.865Z,62.63
2019-06-18T12:55:04.989Z,64.43
2019-06-18T12:57:32.378Z,56.47
2019-06-18T12:59:59.694Z,54.23
2019-06-18T13:02:26.914Z,53.20
2019-06-18T13:04:54.406Z,58.40
2019-06-18T13:07:22.907Z,62.77
2019-06-18T13:09:52.746Z,61.37
2019-06-18T13:12:19.369Z,51.07
2019-06-18T13:14:46.540Z,49.00
2019-06-18T13:17:13.734Z,57.73
2019-06-18T13:19:42.151Z,48.23
2019-06-18T13:22:13.248Z,56.97
2019-06-18T13:24:38.736Z,58.60
2019-06-18T13:27:05.893Z,58.90
2019-06-18T13:29:33.174Z,51.37
2019-06-18T13:32:00.298Z,36.23
2019-06-18T13:34:27.499Z,36.10
2019-06-18T13:36:54.677Z,31.17
2019-06-18T13:39:22.459Z,31.10
2019-06-18T13:41:53.319Z,32.30
2019-06-18T13:44:20.077Z,33.17
2019-06-18T13:46:47.504Z,32.40
2019-06-18T13:49:14.753Z,29.30
2019-06-18T13:51:44.021Z,33.80
2019-06-18T13:54:15.088Z,29.00
2019-06-18T13:56:40.174Z,28.73
2019-06-18T13:59:07.407Z,26.40
2019-06-18T14:01:34.596Z,26.20
2019-06-18T14:04:03.662Z,28.10
2019-06-18T14:06:33.428Z,29.33
2019-06-18T14:09:02.346Z,35.03
2019-06-18T14:11:32.397Z,35.67
2019-06-18T14:13:59.029Z,35.83
2019-06-18T14:16:29.046Z,35.90
2019-06-18T14:18:55.626Z,37.63
2019-06-18T14:21:22.864Z,39.90
2019-06-18T14:24:00.544Z,40.07
2019-06-18T14:26:19.093Z,40.90
2019-06-18T14:28:46.394Z,42.57
2019-06-18T14:31:13.517Z,41.30
2019-06-18T14:33:40.757Z,43.87
2019-06-18T14:36:08.398Z,40.67
2019-06-18T14:38:38.029Z,33.30
2019-06-18T14:41:14.013Z,33.70
2019-06-18T14:43:36.660Z,35.27
2019-06-18T14:46:04.103Z,33.27
2019-06-18T14:48:31.924Z,31.73
2019-06-18T14:50:59.197Z,32.03
2019-06-18T14:53:28.489Z,35.80
2019-06-18T14:55:55.517Z,33.53
2019-06-18T14:58:22.711Z,34.90
2019-06-18T15:00:49.961Z,38.17
2019-06-18T15:03:18.209Z,37.43
2019-06-18T15:05:45.424Z,36.93
2019-06-18T15:08:12.933Z,43.83
2019-06-18T15:10:40.225Z,46.10
2019-06-18T15:13:07.450Z,53.93
2019-06-18T15:15:34.533Z,42.90
2019-06-18T15:18:03.760Z,47.67
2019-06-18T15:20:33.181Z,46.83
2019-06-18T15:23:00.470Z,44.00
2019-06-18T15:25:27.732Z,48.93
2019-06-18T15:27:54.927Z,46.97
2019-06-18T15:30:22.004Z,51.50
2019-06-18T15:32:49.637Z,53.60
2019-06-18T15:35:16.936Z,60.37
2019-06-18T15:37:44.170Z,55.87
2019-06-18T15:40:13.500Z,52.23
2019-06-18T15:42:43.283Z,46.60
2019-06-18T15:45:13.315Z,66.80
2019-06-18T15:47:42.926Z,60.37
2019-06-18T15:50:09.768Z,48.23
2019-06-18T15:52:36.981Z,51.17
2019-06-18T15:55:04.320Z,56.40
2019-06-18T15:57:35.521Z,59.43
2019-06-18T16:00:00.849Z,53.53
2019-06-18T16:02:28.160Z,54.83
2019-06-18T16:04:55.497Z,55.27
2019-06-18T16:07:22.888Z,57.77
2019-06-18T16:09:50.216Z,51.10
2019-06-18T16:12:17.450Z,44.43
2019-06-18T16:14:44.685Z,59.20
2019-06-18T16:17:12.458Z,44.57
2019-06-18T16:19:42.513Z,44.00
2019-06-18T16:22:09.328Z,51.97
2019-06-18T16:24:36.670Z,47.27
2019-06-18T16:27:03.999Z,45.03
2019-06-18T16:29:33.004Z,38.63
2019-06-18T16:32:00.429Z,38.13
2019-06-18T16:34:27.643Z,43.77
2019-06-18T16:36:54.849Z,41.17
2019-06-18T16:39:23.285Z,36.60
2019-06-18T16:41:53.120Z,37.70
2019-06-18T16:44:20.496Z,39.80
2019-06-18T16:46:47.751Z,37.70
2019-06-18T16:49:14.936Z,38.63
2019-06-18T16:51:43.354Z,36.63
2019-06-18T16:54:12.863Z,41.23
2019-06-18T16:56:42.538Z,42.80
2019-06-18T16:59:15.469Z,41.87
2019-06-18T17:01:42.853Z,40.27
2019-06-18T17:04:10.082Z,36.50
2019-06-18T17:06:37.168Z,35.20
2019-06-18T17:09:07.265Z,35.37
2019-06-18T17:11:34.566Z,41.87
2019-06-18T17:14:03.737Z,38.30
2019-06-18T17:16:31.308Z,39.80
2019-06-18T17:18:58.849Z,39.60
2019-06-18T17:21:26.914Z,39.10
2019-06-18T17:23:54.352Z,35.27
2019-06-18T17:26:35.637Z,36.97
2019-06-18T17:28:52.962Z,39.97
2019-06-18T17:31:19.809Z,40.30
2019-06-18T17:33:46.941Z,39.57
2019-06-18T17:36:14.313Z,40.33
2019-06-18T17:38:44.462Z,40.37
2019-06-18T17:41:10.797Z,40.47
2019-06-18T17:43:51.265Z,42.80
2019-06-18T17:46:07.197Z,40.90
2019-06-18T17:48:34.338Z,37.97
2019-06-18T17:51:01.541Z,38.53
2019-06-18T17:53:28.661Z,40.33
2019-06-18T17:56:01.999Z,38.00
2019-06-18T17:58:24.929Z,35.77
2019-06-18T18:00:52.275Z,34.50
2019-06-18T18:03:19.526Z,36.60
2019-06-18T18:05:48.729Z,34.70
2019-06-18T18:08:16.189Z,35.80
2019-06-18T18:10:43.499Z,37.07
2019-06-18T18:13:10.904Z,34.57
2019-06-18T18:15:38.144Z,35.90
2019-06-18T18:18:05.477Z,36.43
2019-06-18T18:20:34.361Z,34.23
2019-06-18T18:23:03.119Z,34.20
2019-06-18T18:25:32.666Z,33.70
2019-06-18T18:28:02.700Z,34.40
2019-06-18T18:30:29.636Z,32.30
2019-06-18T18:32:56.893Z,35.00
2019-06-18T18:35:24.553Z,32.23
2019-06-18T18:37:51.779Z,29.20
2019-06-18T18:40:19.036Z,32.33
2019-06-18T18:42:46.083Z,32.73
2019-06-18T18:45:13.587Z,30.53
2019-06-18T18:47:43.070Z,31.07
2019-06-18T18:50:12.923Z,32.33
2019-06-18T18:52:42.100Z,34.87
2019-06-18T18:55:09.453Z,31.60
2019-06-18T18:57:36.682Z,30.67
2019-06-18T19:00:09.211Z,31.50
2019-06-18T19:02:36.529Z,30.90
2019-06-18T19:05:04.025Z,30.57
2019-06-18T19:07:32.590Z,33.33
2019-06-18T19:09:59.954Z,31.47
2019-06-18T19:12:27.028Z,32.90
2019-06-18T19:14:54.137Z,31.73
2019-06-18T19:17:23.154Z,31.50
2019-06-18T19:19:53.160Z,31.97
2019-06-18T19:22:19.837Z,31.97
2019-06-18T19:24:47.043Z,30.87
2019-06-18T19:27:14.265Z,33.60
2019-06-18T19:29:42.915Z,32.23
2019-06-18T19:32:13.099Z,33.17
2019-06-18T19:34:39.864Z,30.93
2019-06-18T19:37:07.051Z,33.87
2019-06-18T19:39:34.146Z,34.13
2019-06-18T19:42:02.338Z,35.20
2019-06-18T19:44:29.700Z,33.03
2019-06-18T19:46:56.941Z,32.70
2019-06-18T19:49:23.949Z,32.40
2019-06-18T19:51:52.271Z,33.67
2019-06-18T19:54:22.054Z,33.50
2019-06-18T19:56:48.897Z,33.60
2019-06-18T19:59:15.941Z,33.87
2019-06-18T20:01:43.218Z,35.27
2019-06-18T20:04:13.136Z,33.00
2019-06-18T20:06:42.541Z,34.70
2019-06-18T20:09:09.461Z,33.60
2019-06-18T20:11:36.919Z,33.23
2019-06-18T20:14:08.722Z,34.77
2019-06-18T20:16:37.176Z,33.30
2019-06-18T20:19:04.558Z,36.27
2019-06-18T20:21:32.889Z,33.70
2019-06-18T20:24:03.688Z,34.60
2019-06-18T20:26:33.013Z,36.00
2019-06-18T20:29:03.197Z,38.27
2019-06-18T20:31:29.705Z,34.50
2019-06-18T20:33:57.666Z,34.20
2019-06-18T20:36:25.233Z,36.13
2019-06-18T20:38:53.143Z,38.63
2019-06-18T20:41:23.134Z,36.07
2019-06-18T20:43:53.000Z,34.00
2019-06-18T20:46:23.033Z,34.90
2019-06-18T20:48:50.368Z,34.67
2019-06-18T20:51:17.714Z,34.43
2019-06-18T20:53:45.022Z,36.07
2019-06-18T20:56:13.147Z,34.97
2019-06-18T20:58:42.293Z,34.97
2019-06-18T21:01:09.974Z,33.97
2019-06-18T21:03:37.789Z,36.10
2019-06-18T21:06:05.119Z,36.47
2019-06-18T21:08:32.611Z,35.37
2019-06-18T21:11:00.016Z,35.83
2019-06-18T21:13:27.310Z,35.87
2019-06-18T21:15:54.843Z,36.00
2019-06-18T21:18:23.382Z,36.50
2019-06-18T21:20:52.427Z,36.47
2019-06-18T21:23:22.507Z,37.73
2019-06-18T21:25:49.244Z,38.20
2019-06-18T21:28:22.692Z,35.13
2019-06-18T21:30:45.664Z,42.30
2019-06-18T21:33:13.101Z,39.60
2019-06-18T21:35:42.343Z,39.23
2019-06-18T21:38:12.015Z,36.63
2019-06-18T21:40:39.021Z,38.37
2019-06-18T21:43:06.247Z,38.97
2019-06-18T21:45:33.664Z,37.70
2019-06-18T21:48:03.051Z,41.47
2019-06-18T21:50:30.005Z,37.80
2019-06-18T21:52:57.187Z,39.03
2019-06-18T21:55:24.593Z,38.30
2019-06-18T21:57:52.472Z,37.97
2019-06-18T22:00:23.910Z,38.20
2019-06-18T22:02:52.644Z,39.80
2019-06-18T22:05:22.779Z,41.97
2019-06-18T22:07:49.257Z,39.93
2019-06-18T22:10:17.317Z,39.17
2019-06-18T22:12:44.506Z,36.80
2019-06-18T22:15:12.985Z,38.73
2019-06-18T22:17:42.643Z,40.20
2019-06-18T22:20:16.754Z,38.30
2019-06-18T22:22:44.022Z,42.53
2019-06-18T22:25:12.415Z,42.50
2019-06-18T22:27:42.448Z,39.90
2019-06-18T22:30:10.044Z,44.13
2019-06-18T22:32:37.232Z,42.83
2019-06-18T22:35:04.586Z,42.37
2019-06-18T22:37:32.783Z,42.87
2019-06-18T22:40:00.178Z,49.70
2019-06-18T22:42:27.438Z,41.83
2019-06-18T22:44:55.469Z,40.80
2019-06-18T22:47:23.099Z,43.00
2019-06-18T22:49:50.389Z,42.00
2019-06-18T22:52:17.717Z,45.57
2019-06-18T22:54:44.920Z,42.43
2019-06-18T22:57:13.711Z,42.60
2019-06-18T22:59:43.089Z,42.70
2019-06-18T23:02:12.471Z,43.83
2019-06-18T23:04:39.808Z,45.33
2019-06-18T23:07:07.072Z,40.63
2019-06-18T23:09:34.136Z,54.17
2019-06-18T23:12:02.246Z,47.23
2019-06-18T23:14:32.402Z,42.37
2019-06-18T23:16:59.511Z,41.07
2019-06-18T23:19:26.995Z,45.33
2019-06-18T23:21:54.101Z,43.97
2019-06-18T23:24:21.300Z,47.97
2019-06-18T23:26:48.656Z,44.37
2019-06-18T23:29:15.956Z,76.33
2019-06-18T23:31:43.478Z,44.83
2019-06-18T23:34:13.068Z,44.17
2019-06-18T23:36:40.257Z,44.90
2019-06-18T23:39:07.919Z,41.60
2019-06-18T23:41:35.082Z,43.17
2019-06-18T23:44:02.791Z,43.13
2019-06-18T23:46:30.201Z,41.87
2019-06-18T23:48:57.541Z,39.47
2019-06-18T23:51:24.664Z,40.67
2019-06-18T23:53:53.539Z,40.43
2019-06-18T23:56:22.761Z,43.17
2019-06-18T23:58:50.142Z,46.37
